< Typhoon 197704 1977 Season Typhoon 197706 >
Typhoon 197705 (VERA)
General InformationTrack Information on Google MapsDetailed Wind Information || NewsDisaster Info.ResourceGoogle EarthGE AnimationAtom FeedGeoJSON
Detalied Best Track (Time Zone = UTC)
Year Month Day Hour Lat. Long. Pressure (hPa) Wind (kt) Class Image Chart
1977 7 25 06 24.0 137.0 1010 0 2 -- Chart
1977 7 25 12 25.0 136.0 1010 0 2 -- Chart
1977 7 25 18 26.0 134.5 1010 0 2 -- Chart
1977 7 26 00 26.0 133.0 1010 0 2 -- Chart
1977 7 26 06 26.0 132.5 1008 0 2 -- Chart
1977 7 26 12 26.0 132.0 1008 0 2 -- Chart
1977 7 26 18 25.7 131.7 1006 0 2 -- Chart
1977 7 27 00 25.4 131.3 1004 0 2 -- Chart
1977 7 27 06 25.4 131.0 1002 0 2 -- Chart
1977 7 27 12 25.3 130.8 1000 40 3 -- Chart
1977 7 27 18 25.3 130.5 1000 40 3 -- Chart
1977 7 28 00 25.3 130.3 996 40 3 -- Chart
1977 7 28 06 25.3 129.8 990 40 3 -- Chart
1977 7 28 12 25.2 129.3 985 50 4 -- Chart
1977 7 28 18 25.0 128.8 980 50 4 -- Chart
1977 7 29 00 24.7 128.2 975 55 4 -- Chart
1977 7 29 06 24.6 127.5 960 65 5 -- Chart
1977 7 29 12 24.0 126.5 945 70 5 -- Chart
1977 7 29 18 23.5 126.0 935 80 5 -- Chart
1977 7 30 00 23.4 125.7 930 90 5 -- Chart
1977 7 30 06 23.3 125.4 925 110 5 -- Chart
1977 7 30 12 23.7 125.0 925 100 5 -- Chart
1977 7 30 18 24.0 124.3 925 100 5 -- Chart
1977 7 31 00 24.4 123.7 925 110 5 -- Chart
1977 7 31 06 25.0 122.9 925 110 5 -- Chart
1977 7 31 12 25.0 121.2 940 90 5 -- Chart
1977 7 31 18 25.0 120.2 950 85 5 -- Chart
1977 8 1 00 25.0 119.3 970 70 5 -- Chart
1977 8 1 06 25.0 118.0 980 50 4 -- Chart
1977 8 1 12 25.1 116.3 985 35 3 -- Chart
1977 8 1 18 25.2 114.9 990 0 2 -- Chart
1977 8 2 00 25.5 113.0 992 0 2 -- Chart
1977 8 2 06 26.8 111.0 996 0 2 -- Chart
Japan Meteorological Agency Best Track Data | Correction Date : 1992-10-21
< Typhoon 197704 1977 Season Typhoon 197706 >

Help